createdAt,value
2022-12-15T00:01:20.592Z,147638.84
2022-12-15T00:04:05.011Z,147618.84
2022-12-15T00:06:49.311Z,147660.09
2022-12-15T00:09:33.725Z,147665.13
2022-12-15T00:12:18.583Z,147672.59
2022-12-15T00:15:03.100Z,147677.59
2022-12-15T00:17:47.296Z,147631.34
2022-12-15T00:20:31.938Z,147632.59
2022-12-15T00:23:16.386Z,147636.34
2022-12-15T00:26:04.083Z,147663.81
2022-12-15T00:28:48.301Z,147656.34
2022-12-15T00:31:32.862Z,147656.34
2022-12-15T00:34:17.332Z,147656.34
2022-12-15T00:37:01.525Z,147688.88
2022-12-15T00:39:27.310Z,147666.38
2022-12-15T00:41:53.124Z,147685.13
2022-12-15T00:44:20.872Z,147701.38
2022-12-15T00:46:55.924Z,147675.09
2022-12-15T00:49:42.569Z,147685.13
2022-12-15T00:52:27.959Z,147693.84
2022-12-15T00:55:12.663Z,147661.34
2022-12-15T00:57:57.469Z,147600.09
2022-12-15T01:00:42.378Z,147565.06
2022-12-15T01:03:29.787Z,147587.56
2022-12-15T01:06:14.551Z,147626.31
2022-12-15T01:08:59.131Z,147625.06
2022-12-15T01:11:43.501Z,147597.59
2022-12-15T01:14:27.965Z,147602.56
2022-12-15T01:17:12.502Z,147585.06
2022-12-15T01:19:56.915Z,147557.53
2022-12-15T01:22:22.971Z,147540.09
2022-12-15T01:24:48.740Z,147530.06
2022-12-15T01:27:14.834Z,147542.59
2022-12-15T01:29:40.681Z,147535.06
2022-12-15T01:32:06.887Z,147571.31
2022-12-15T01:34:32.660Z,147558.84
2022-12-15T01:36:58.524Z,147543.84
2022-12-15T01:39:24.449Z,147560.09
2022-12-15T01:41:50.281Z,147557.53
2022-12-15T01:44:22.693Z,147601.31
2022-12-15T01:46:52.506Z,147527.59
2022-12-15T01:49:25.894Z,147521.28
2022-12-15T01:51:58.068Z,147495.06
2022-12-15T01:54:28.064Z,147507.59
2022-12-15T01:56:59.169Z,147522.59
2022-12-15T01:59:32.482Z,147490.09
2022-12-15T02:01:58.483Z,147461.31
2022-12-15T02:04:24.592Z,147437.59
2022-12-15T02:06:52.333Z,147381.38
2022-12-15T02:09:20.952Z,147400.13
2022-12-15T02:12:08.159Z,147383.88
2022-12-15T02:14:58.225Z,147357.66
2022-12-15T02:17:36.533Z,147417.63
2022-12-15T02:20:27.461Z,147398.88
2022-12-15T02:23:21.086Z,147392.59
2022-12-15T02:25:52.515Z,147388.88
2022-12-15T02:28:36.981Z,147398.88
2022-12-15T02:31:36.415Z,147458.84
2022-12-15T02:34:13.915Z,147430.06
2022-12-15T02:36:43.955Z,147400.13
2022-12-15T02:39:13.412Z,147428.81
2022-12-15T02:41:42.064Z,147408.84
2022-12-15T02:44:11.406Z,147416.38
2022-12-15T02:46:45.208Z,147408.84
2022-12-15T02:49:29.283Z,147421.34
2022-12-15T02:52:12.863Z,147351.44
2022-12-15T02:55:10.765Z,147395.09
2022-12-15T02:58:01.232Z,147367.69
2022-12-15T03:00:30.259Z,147308.94
2022-12-15T03:02:56.436Z,147321.44
2022-12-15T03:05:24.148Z,147326.44
2022-12-15T03:07:52.216Z,147312.72
2022-12-15T03:10:21.222Z,147422.59
2022-12-15T03:12:47.031Z,147373.88
2022-12-15T03:15:13.112Z,147357.66
2022-12-15T03:17:39.112Z,147310.22
2022-12-15T03:20:05.439Z,147282.75
2022-12-15T03:22:31.301Z,147360.16
2022-12-15T03:24:57.426Z,147252.75
2022-12-15T03:27:23.273Z,147312.72
2022-12-15T03:29:49.160Z,147239.06
2022-12-15T03:32:15.075Z,147249.00
2022-12-15T03:34:41.193Z,147251.50
2022-12-15T03:37:07.234Z,147237.75
2022-12-15T03:39:33.326Z,147199.06
2022-12-15T03:41:59.192Z,147282.75
2022-12-15T03:44:25.140Z,147267.75
2022-12-15T03:46:50.884Z,147335.19
2022-12-15T03:49:16.735Z,147242.78
2022-12-15T03:51:42.507Z,147244.03
2022-12-15T03:54:08.286Z,147291.50
2022-12-15T03:56:34.116Z,147264.00
2022-12-15T03:58:59.958Z,147240.28
2022-12-15T04:01:31.367Z,147302.72
2022-12-15T04:04:00.882Z,147286.47
2022-12-15T04:06:28.205Z,147287.72
2022-12-15T04:08:54.062Z,147276.50
2022-12-15T04:11:19.864Z,147256.53
2022-12-15T04:13:45.765Z,147288.97
2022-12-15T04:16:14.795Z,147281.50
2022-12-15T04:18:43.669Z,147276.50
2022-12-15T04:21:09.456Z,147283.97
2022-12-15T04:23:35.194Z,147290.22
2022-12-15T04:26:19.671Z,147305.22
2022-12-15T04:29:03.953Z,147325.19
2022-12-15T04:31:50.876Z,147265.25
2022-12-15T04:34:41.533Z,147301.47
2022-12-15T04:37:30.381Z,147360.16
2022-12-15T04:40:15.123Z,147336.44
2022-12-15T04:43:03.519Z,147316.47
2022-12-15T04:45:47.935Z,147306.44
2022-12-15T04:48:32.212Z,147247.78
2022-12-15T04:51:16.666Z,147161.63
2022-12-15T04:54:02.622Z,147242.78
2022-12-15T04:56:47.083Z,147202.84
2022-12-15T04:59:34.948Z,147215.28
2022-12-15T05:02:19.440Z,147235.28
2022-12-15T05:05:03.717Z,147224.06
2022-12-15T05:07:48.158Z,147237.75
2022-12-15T05:10:32.547Z,147282.75
2022-12-15T05:13:24.232Z,147357.66
2022-12-15T05:16:08.556Z,147326.44
2022-12-15T05:18:52.810Z,147303.97
2022-12-15T05:21:37.092Z,147308.94
2022-12-15T05:24:21.462Z,147306.44
2022-12-15T05:27:05.865Z,147301.47
2022-12-15T05:29:50.313Z,147267.75
2022-12-15T05:32:16.574Z,147347.69
2022-12-15T05:34:42.389Z,147269.00
2022-12-15T05:37:08.250Z,147262.75
2022-12-15T05:39:34.206Z,147244.03
2022-12-15T05:42:00.448Z,147240.28
2022-12-15T05:44:27.917Z,147269.00
2022-12-15T05:46:53.823Z,147327.72
2022-12-15T05:49:20.141Z,147365.19
2022-12-15T05:51:47.192Z,147347.69
2022-12-15T05:54:15.593Z,147333.94
2022-12-15T05:56:41.461Z,147315.22
2022-12-15T05:59:07.716Z,147330.22
2022-12-15T06:01:34.721Z,147336.44
2022-12-15T06:04:01.198Z,147232.78
2022-12-15T06:06:27.837Z,147286.47
2022-12-15T06:08:53.842Z,147287.72
2022-12-15T06:11:21.458Z,147358.91
2022-12-15T06:13:48.101Z,147368.94
2022-12-15T06:16:21.847Z,147362.69
2022-12-15T06:18:50.681Z,147398.88
2022-12-15T06:21:19.543Z,147415.06
2022-12-15T06:23:47.246Z,147415.06
2022-12-15T06:26:13.527Z,147376.34
2022-12-15T06:28:39.953Z,147345.22
2022-12-15T06:31:08.171Z,147332.69
2022-12-15T06:33:34.718Z,147357.66
2022-12-15T06:36:06.637Z,147331.47
2022-12-15T06:38:33.185Z,147358.91
2022-12-15T06:41:00.132Z,147351.44
2022-12-15T06:43:26.877Z,147382.63
2022-12-15T06:45:52.952Z,147431.31
2022-12-15T06:48:21.865Z,147467.56
2022-12-15T06:50:50.376Z,147461.31
2022-12-15T06:53:18.524Z,147497.56
2022-12-15T06:55:44.796Z,147507.59
2022-12-15T06:58:11.712Z,147450.06
2022-12-15T07:00:41.235Z,147416.38
2022-12-15T07:03:16.909Z,147400.13
2022-12-15T07:05:44.242Z,147375.09
2022-12-15T07:08:11.515Z,147352.69
2022-12-15T07:10:41.791Z,147380.13
2022-12-15T07:13:11.826Z,147291.50
2022-12-15T07:15:38.187Z,147303.97
2022-12-15T07:18:04.575Z,147281.50
2022-12-15T07:20:30.588Z,147269.00
2022-12-15T07:22:56.515Z,147239.06
2022-12-15T07:25:22.891Z,147256.53
2022-12-15T07:27:48.946Z,147352.69
2022-12-15T07:30:16.982Z,147413.81
2022-12-15T07:32:43.603Z,147323.94
2022-12-15T07:35:16.021Z,147370.19
2022-12-15T07:37:41.833Z,147385.13
2022-12-15T07:40:08.099Z,147343.91
2022-12-15T07:42:33.825Z,147323.94
2022-12-15T07:44:59.656Z,147312.72
2022-12-15T07:47:27.169Z,147326.44
2022-12-15T07:49:54.028Z,147333.94
2022-12-15T07:52:20.336Z,147327.72
2022-12-15T07:54:46.092Z,147305.22
2022-12-15T07:57:12.005Z,147365.19
2022-12-15T07:59:37.831Z,147350.19
2022-12-15T08:02:04.180Z,147381.38
2022-12-15T08:04:30.791Z,147421.34
2022-12-15T08:06:57.597Z,147417.63
2022-12-15T08:09:24.617Z,147412.59
2022-12-15T08:11:50.464Z,147428.81
2022-12-15T08:14:18.295Z,147428.81
2022-12-15T08:16:45.095Z,147466.31
2022-12-15T08:19:13.076Z,147440.09
2022-12-15T08:21:39.792Z,147476.34
2022-12-15T08:24:07.394Z,147495.06
2022-12-15T08:26:33.835Z,147492.56
2022-12-15T08:29:40.370Z,147498.81
2022-12-15T08:31:53.320Z,147485.06
2022-12-15T08:34:19.360Z,147527.59
2022-12-15T08:36:45.222Z,147551.31
2022-12-15T08:39:11.033Z,147542.59
2022-12-15T08:41:36.965Z,147595.09
2022-12-15T08:44:03.086Z,147605.06
2022-12-15T08:46:33.721Z,147592.56
2022-12-15T08:49:02.769Z,147662.56
2022-12-15T08:51:30.462Z,147618.84
2022-12-15T08:53:59.133Z,147618.84
2022-12-15T08:56:26.129Z,147658.84
2022-12-15T08:59:01.863Z,147718.91
2022-12-15T09:01:31.027Z,147698.84
2022-12-15T09:03:58.856Z,147705.13
2022-12-15T09:06:29.271Z,147737.66
2022-12-15T09:08:59.905Z,147751.38
2022-12-15T09:11:28.100Z,147781.41
2022-12-15T09:13:54.160Z,147830.22
2022-12-15T09:16:20.993Z,147808.97
2022-12-15T09:18:50.896Z,147845.25
2022-12-15T09:21:18.362Z,147857.72
2022-12-15T09:23:49.832Z,147856.47
2022-12-15T09:26:15.588Z,147876.50
2022-12-15T09:28:42.474Z,147892.78
2022-12-15T09:31:11.429Z,147899.06
2022-12-15T09:33:37.999Z,147955.38
2022-12-15T09:36:05.212Z,147980.41
2022-12-15T09:38:33.496Z,147977.91
2022-12-15T09:41:07.642Z,148016.69
2022-12-15T09:43:34.961Z,148043.03
2022-12-15T09:46:22.624Z,148059.31
2022-12-15T09:48:50.972Z,148075.59
2022-12-15T09:51:18.691Z,148079.34
2022-12-15T09:53:54.700Z,148093.13
2022-12-15T09:56:29.971Z,148090.56
2022-12-15T09:59:24.353Z,148108.13
2022-12-15T10:02:03.228Z,148199.59
2022-12-15T10:04:45.769Z,148536.78
2022-12-15T10:07:42.985Z,149138.25
2022-12-15T10:10:23.083Z,149646.47
2022-12-15T10:13:01.720Z,150357.38
2022-12-15T10:15:54.255Z,151363.41
2022-12-15T10:18:24.963Z,152234.09
2022-12-15T10:21:00.981Z,152792.91
2022-12-15T10:23:26.791Z,153124.78
2022-12-15T10:26:15.216Z,153235.50
2022-12-15T10:29:01.390Z,153243.13
2022-12-15T10:31:38.704Z,153234.22
2022-12-15T10:34:10.564Z,153444.19
2022-12-15T10:36:36.684Z,154101.75
2022-12-15T10:39:02.653Z,154710.53
2022-12-15T10:41:32.106Z,155184.63
2022-12-15T10:43:57.909Z,155371.38
2022-12-15T10:46:26.657Z,155554.34
2022-12-15T10:48:56.787Z,155615.78
2022-12-15T10:51:44.576Z,155771.97
2022-12-15T10:54:15.400Z,155820.59
2022-12-15T10:56:55.713Z,155825.75
2022-12-15T10:59:35.653Z,155919.25
2022-12-15T11:02:25.643Z,155838.50
2022-12-15T11:05:15.382Z,156066.53
2022-12-15T11:07:50.478Z,156078.03
2022-12-15T11:10:24.900Z,156333.09
2022-12-15T11:12:58.741Z,156490.78
2022-12-15T11:15:30.482Z,156335.69
2022-12-15T11:18:24.189Z,156074.22
2022-12-15T11:20:55.450Z,156015.25
2022-12-15T11:23:36.323Z,156028.13
2022-12-15T11:26:22.396Z,155827.00
2022-12-15T11:28:55.530Z,155760.44
2022-12-15T11:31:37.569Z,155788.63
2022-12-15T11:34:12.444Z,155821.88
2022-12-15T11:36:51.770Z,155812.91
2022-12-15T11:39:36.571Z,155624.75
2022-12-15T11:42:09.800Z,155278.00
2022-12-15T11:44:58.615Z,154983.94
2022-12-15T11:47:30.171Z,154535.63
2022-12-15T11:50:13.760Z,154127.28
2022-12-15T11:53:04.073Z,153332.19
2022-12-15T11:55:57.853Z,152587.06
2022-12-15T11:58:53.295Z,152198.63
2022-12-15T12:01:26.591Z,151924.59
2022-12-15T12:04:13.391Z,151873.94
2022-12-15T12:07:04.089Z,152071.66
2022-12-15T12:09:36.619Z,152273.47
2022-12-15T12:12:21.610Z,152427.06
2022-12-15T12:15:09.450Z,152376.22
2022-12-15T12:18:21.046Z,152537.53
2022-12-15T12:20:55.800Z,152686.16
2022-12-15T12:23:27.434Z,152814.53
2022-12-15T12:26:23.468Z,152786.56
2022-12-15T12:28:53.708Z,152636.59
2022-12-15T12:31:32.085Z,152566.75
2022-12-15T12:34:05.638Z,152498.16
2022-12-15T12:36:31.429Z,152160.50
2022-12-15T12:38:57.825Z,151597.63
2022-12-15T12:41:45.636Z,150964.94
2022-12-15T12:44:32.902Z,150595.97
2022-12-15T12:47:04.730Z,150314.50
2022-12-15T12:50:03.029Z,150092.44
2022-12-15T12:52:36.747Z,149999.16
2022-12-15T12:55:28.242Z,150170.66
2022-12-15T12:57:54.988Z,150308.16
2022-12-15T13:00:27.820Z,150300.59
2022-12-15T13:02:55.332Z,150135.34
2022-12-15T13:05:31.719Z,150069.75
2022-12-15T13:08:07.194Z,150004.25
2022-12-15T13:10:41.772Z,149928.59
2022-12-15T13:13:30.583Z,150018.06
2022-12-15T13:16:31.056Z,150045.81
2022-12-15T13:19:14.793Z,149815.22
2022-12-15T13:21:40.873Z,149669.13
2022-12-15T13:24:45.938Z,149497.94
2022-12-15T13:27:16.395Z,149419.94
2022-12-15T13:30:06.554Z,149333.13
2022-12-15T13:32:39.706Z,149243.84
2022-12-15T13:35:11.228Z,149214.91
2022-12-15T13:37:55.157Z,149201.13
2022-12-15T13:40:37.067Z,149149.56
2022-12-15T13:43:02.856Z,149137.00
2022-12-15T13:45:35.679Z,149130.72
2022-12-15T13:48:12.728Z,149075.44
2022-12-15T13:50:51.238Z,149028.91
2022-12-15T13:53:21.069Z,148979.91
2022-12-15T13:56:33.909Z,148910.81
2022-12-15T13:59:24.717Z,148890.72
2022-12-15T14:01:52.133Z,148870.66
2022-12-15T14:04:18.214Z,148850.56
2022-12-15T14:06:53.015Z,148838.00
2022-12-15T14:09:23.380Z,148789.06
2022-12-15T14:11:54.313Z,148812.91
2022-12-15T14:14:30.768Z,148781.50
2022-12-15T14:17:00.558Z,148779.00
2022-12-15T14:19:38.455Z,148780.25
2022-12-15T14:22:27.152Z,148768.94
2022-12-15T14:25:17.693Z,148757.66
2022-12-15T14:27:43.558Z,148740.09
2022-12-15T14:30:18.882Z,148707.44
2022-12-15T14:32:48.299Z,148714.97
2022-12-15T14:35:44.042Z,148696.13
2022-12-15T14:38:26.020Z,148679.81
2022-12-15T14:40:55.900Z,148681.13
2022-12-15T14:43:29.158Z,148683.63
2022-12-15T14:46:07.438Z,148691.13
2022-12-15T14:48:41.819Z,148677.31
2022-12-15T14:51:10.732Z,148667.31
2022-12-15T14:53:39.171Z,148659.75
2022-12-15T14:56:29.365Z,148657.25
2022-12-15T14:59:18.731Z,148633.41
2022-12-15T15:02:02.183Z,148642.19
2022-12-15T15:04:33.359Z,148590.72
2022-12-15T15:07:05.822Z,148551.84
2022-12-15T15:09:40.639Z,148539.34
2022-12-15T15:12:13.028Z,148559.41
2022-12-15T15:14:51.114Z,148543.09
2022-12-15T15:17:24.057Z,148500.41
2022-12-15T15:20:02.366Z,148514.22
2022-12-15T15:22:42.684Z,148487.91
2022-12-15T15:25:36.223Z,148442.72
2022-12-15T15:28:17.531Z,148390.06
2022-12-15T15:30:44.769Z,148386.31
2022-12-15T15:33:12.764Z,148408.88
2022-12-15T15:35:40.945Z,148449.03
2022-12-15T15:38:14.020Z,148461.53
2022-12-15T15:40:39.838Z,148456.53
2022-12-15T15:43:16.354Z,148423.94
2022-12-15T15:45:42.674Z,148413.94
2022-12-15T15:48:16.567Z,148472.84
2022-12-15T15:50:43.898Z,148433.97
2022-12-15T15:53:18.835Z,148421.44
2022-12-15T15:55:46.419Z,148476.59
2022-12-15T15:58:12.752Z,148469.09
2022-12-15T16:00:39.445Z,148388.81
2022-12-15T16:03:06.096Z,148421.44
2022-12-15T16:05:32.315Z,148392.56
2022-12-15T16:07:59.941Z,148391.31
2022-12-15T16:10:26.149Z,148351.22
2022-12-15T16:12:54.905Z,148353.72
2022-12-15T16:15:25.204Z,148380.06
2022-12-15T16:17:52.520Z,148375.03
2022-12-15T16:20:21.493Z,148333.66
2022-12-15T16:22:51.595Z,148341.22
2022-12-15T16:25:37.381Z,148337.41
2022-12-15T16:28:14.020Z,148356.22
2022-12-15T16:30:40.928Z,148402.63
2022-12-15T16:33:07.007Z,148402.63
2022-12-15T16:35:32.996Z,148396.38
2022-12-15T16:37:58.835Z,148365.03
2022-12-15T16:40:26.895Z,148332.41
2022-12-15T16:43:00.758Z,148346.22
2022-12-15T16:45:29.906Z,148339.91
2022-12-15T16:47:57.147Z,148319.88
2022-12-15T16:50:33.460Z,148353.72
2022-12-15T16:53:00.562Z,148343.72
2022-12-15T16:55:28.560Z,148371.28
2022-12-15T16:58:00.769Z,148402.63
2022-12-15T17:00:33.488Z,148396.38
2022-12-15T17:03:00.549Z,148382.56
2022-12-15T17:05:31.354Z,148366.28
2022-12-15T17:08:00.073Z,148386.31
2022-12-15T17:10:28.673Z,148361.28
2022-12-15T17:13:06.197Z,148349.97
2022-12-15T17:15:32.430Z,148365.03
2022-12-15T17:17:58.244Z,148378.81
2022-12-15T17:20:29.762Z,148361.28
2022-12-15T17:23:03.204Z,148336.16
2022-12-15T17:28:39.963Z,148297.31
2022-12-15T17:31:20.435Z,148278.53
2022-12-15T17:33:47.444Z,148281.03
2022-12-15T17:36:20.523Z,148277.28
2022-12-15T17:38:51.057Z,148267.22
2022-12-15T17:41:42.317Z,148298.56
2022-12-15T17:44:31.630Z,148304.81
2022-12-15T17:46:48.946Z,148327.41
2022-12-15T17:49:14.871Z,148395.13
2022-12-15T17:51:42.859Z,148411.38
2022-12-15T17:54:13.305Z,148337.41
2022-12-15T17:56:41.152Z,148324.91
2022-12-15T17:59:14.824Z,148271.03
2022-12-15T18:01:42.309Z,148253.47
2022-12-15T18:04:09.460Z,148267.22
2022-12-15T18:06:37.033Z,148298.56
2022-12-15T18:09:03.396Z,148386.31
2022-12-15T18:11:30.079Z,148332.41
2022-12-15T18:13:56.318Z,148311.13
2022-12-15T18:16:22.240Z,148301.06
2022-12-15T18:18:48.168Z,148258.47
2022-12-15T18:21:16.003Z,148234.69
2022-12-15T18:23:42.742Z,148219.66
2022-12-15T18:26:12.590Z,148184.56
2022-12-15T18:28:38.678Z,148192.06
2022-12-15T18:31:26.081Z,148178.28
2022-12-15T18:33:59.497Z,148141.94
2022-12-15T18:36:28.526Z,148140.69
2022-12-15T18:38:54.302Z,148116.91
2022-12-15T18:41:20.852Z,148088.09
2022-12-15T18:43:57.857Z,148098.13
2022-12-15T18:46:24.415Z,148079.34
2022-12-15T18:48:50.341Z,148026.75
2022-12-15T18:51:19.553Z,148058.06
2022-12-15T18:53:47.146Z,148048.03
2022-12-15T18:56:15.100Z,148036.72
2022-12-15T18:58:41.242Z,148096.88
2022-12-15T19:01:07.921Z,148113.16
2022-12-15T19:03:35.818Z,148134.44
2022-12-15T19:06:34.181Z,148144.44
2022-12-15T19:09:02.880Z,148133.19
2022-12-15T19:11:30.409Z,148130.69
2022-12-15T19:13:58.093Z,148158.22
2022-12-15T19:16:24.427Z,148180.81
2022-12-15T19:19:15.425Z,148189.56
2022-12-15T19:22:01.948Z,148193.31
2022-12-15T19:24:48.708Z,148173.28
2022-12-15T19:27:19.596Z,148202.09
2022-12-15T19:29:46.493Z,148204.59
2022-12-15T19:32:12.634Z,148204.59
2022-12-15T19:34:39.298Z,148240.94
2022-12-15T19:37:11.762Z,148208.34
2022-12-15T19:39:38.433Z,148192.06
2022-12-15T19:42:13.098Z,148151.97
2022-12-15T19:44:39.256Z,148131.94
2022-12-15T19:47:12.811Z,148113.16
2022-12-15T19:49:40.256Z,148071.81
2022-12-15T19:52:15.025Z,148084.34
2022-12-15T19:54:42.864Z,148061.81
2022-12-15T19:57:13.579Z,148037.97
2022-12-15T19:59:39.942Z,148021.75
2022-12-15T20:02:06.542Z,148010.47
2022-12-15T20:04:33.332Z,148026.75
2022-12-15T20:07:03.500Z,148064.31
2022-12-15T20:09:29.604Z,148090.56
2022-12-15T20:11:55.529Z,148093.13
2022-12-15T20:14:21.628Z,148084.34
2022-12-15T20:16:49.600Z,148105.63
2022-12-15T20:19:15.535Z,148083.09
2022-12-15T20:21:41.500Z,148086.84
2022-12-15T20:24:13.314Z,148098.13
2022-12-15T20:26:39.851Z,148120.66
2022-12-15T20:29:19.826Z,148073.03
2022-12-15T20:31:45.634Z,148041.78
2022-12-15T20:34:11.649Z,148032.97
2022-12-15T20:36:38.143Z,148045.53
2022-12-15T20:39:04.316Z,148040.53
2022-12-15T20:41:30.116Z,148051.75
2022-12-15T20:43:57.170Z,148078.09
2022-12-15T20:46:26.144Z,148058.06
2022-12-15T20:48:54.362Z,148020.50
2022-12-15T20:51:26.355Z,148024.25
2022-12-15T20:53:55.534Z,148041.78
2022-12-15T20:56:22.486Z,148037.97
2022-12-15T20:58:52.908Z,148015.47
2022-12-15T21:01:28.156Z,147981.66
2022-12-15T21:03:56.777Z,148002.97
2022-12-15T21:06:24.515Z,148010.47
2022-12-15T21:08:51.047Z,147991.69
2022-12-15T21:11:19.085Z,148006.72
2022-12-15T21:13:46.845Z,148001.66
2022-12-15T21:16:18.873Z,148009.22
2022-12-15T21:21:38.137Z,147952.88
2022-12-15T21:24:15.594Z,147999.16
2022-12-15T21:26:41.889Z,147981.66
2022-12-15T21:29:17.405Z,147965.38
2022-12-15T21:31:43.385Z,147957.88
2022-12-15T21:34:09.220Z,147962.88
2022-12-15T21:36:36.730Z,147947.84
2022-12-15T21:39:05.042Z,147985.44
2022-12-15T21:41:31.264Z,148000.41
2022-12-15T21:43:57.094Z,148004.22
2022-12-15T21:46:28.053Z,147989.19
2022-12-15T21:49:16.779Z,147964.13
2022-12-15T21:51:45.999Z,147970.41
2022-12-15T21:54:25.982Z,147967.91
2022-12-15T21:56:55.266Z,147939.09
2022-12-15T21:59:23.369Z,147911.53
2022-12-15T22:01:50.101Z,147902.81
2022-12-15T22:04:20.775Z,147906.56
2022-12-15T22:06:50.913Z,147904.06
2022-12-15T22:09:17.827Z,147890.28
2022-12-15T22:11:46.140Z,147891.53
2022-12-15T22:14:29.880Z,147885.28
2022-12-15T22:16:57.897Z,147872.75
2022-12-15T22:19:24.150Z,147890.28
2022-12-15T22:21:50.155Z,147945.34
2022-12-15T22:24:16.070Z,147945.34
2022-12-15T22:26:42.184Z,147950.38
2022-12-15T22:29:21.878Z,147940.34
2022-12-15T22:31:49.634Z,147970.41
2022-12-15T22:34:20.883Z,147976.66
2022-12-15T22:36:47.550Z,147967.91
2022-12-15T22:39:14.271Z,148006.72
2022-12-15T22:41:42.982Z,147977.91
2022-12-15T22:44:20.006Z,147962.88
2022-12-15T22:46:47.749Z,147965.38
2022-12-15T22:49:22.674Z,148000.41
2022-12-15T22:51:48.468Z,147965.38
2022-12-15T22:54:20.109Z,147965.38
2022-12-15T22:56:50.133Z,147954.13
2022-12-15T22:59:33.638Z,147912.78
2022-12-15T23:02:01.690Z,147891.53
2022-12-15T23:04:28.845Z,147849.00
2022-12-15T23:06:54.900Z,147822.69
2022-12-15T23:09:20.838Z,147810.22
2022-12-15T23:11:47.102Z,147807.72
2022-12-15T23:14:17.444Z,147844.00
2022-12-15T23:16:46.252Z,147853.97
2022-12-15T23:19:29.977Z,147856.47
2022-12-15T23:21:55.818Z,147850.25
2022-12-15T23:24:21.634Z,147820.19
2022-12-15T23:26:47.391Z,147815.19
2022-12-15T23:29:13.569Z,147821.44
2022-12-15T23:31:39.587Z,147823.94
2022-12-15T23:34:05.549Z,147803.94
2022-12-15T23:36:31.323Z,147805.16
2022-12-15T23:38:57.657Z,147826.47
2022-12-15T23:41:23.508Z,147806.41
2022-12-15T23:43:49.455Z,147793.94
2022-12-15T23:46:15.307Z,147793.94
2022-12-15T23:48:42.913Z,147747.63
2022-12-15T23:51:14.785Z,147770.13
2022-12-15T23:53:41.783Z,147762.66
2022-12-15T23:56:13.398Z,147801.44
2022-12-15T23:58:41.154Z,147826.47
